Blackfoot, Texas
Current Conditions -  °F | °C
As of 8:15 PM on Sunday 25 Jan 2015 (Local Time) from KPSN Reporting Station
Clear Clear  
Wind Chill: 54°   Ceiling: Unl
Heat Index: 54°   Visibility: 10mi
Dew Point: 29°   Wind: 6mph
Humidity: 38%   Direction: 290°WNW
Pressure: 30.12"   Gusts: NA
Location:  31.935°N, 95.7672°W
Report Text: KPSN 260215Z AUTO 29005KT 10SM CLR 12/M02 A3012 RMK AO2 T01201019
Loading
Personal Weather Stations






























Interactive Weather Map New forecast layout! Learn more

10-Day Weather Forecast

Advertisements
Track Severe Weather on mobile